LiveATC.Net - Listen to live air traffic control over the Internet! Contact LiveATC.net for advertising information


ICAO: TNCM  IATA: SXM   Airport: Princess Juliana International Airport
City: Philipsburg
Country: Saint Martin   Continent: North America
TNCM METAR Weather: TNCM 241700Z 09016G28KT 050V120 9999 SCT018 SCT040 30/22 Q1017 A3005 NOSIG
TNCM Flight Activity (FlightAware)
TNCM Tower/Misc
Feed Status: DOWN
Last heard on: 2014-07-24 11:44:03 (0 days 5 hours 57 minutes ago)
TNCM Tower/Misc Audio Archives
FacilityFrequency
Juliana Approach (only when busy)128.950
Juliana Tower (TNCM)118.700
Lloyd Tower (TQPF/Anguilla)118.500

NOTE: Feed up from 1100-2200Z

NOTICE

Unauthorized use prohibited. See LiveATC.net Terms of Service


Find LiveATC Audio Streams


Airport/ARTCC Code

Frequency
(e.g., 124.400, 128.75)
Site-wide search

Browse LiveATC Feeds
LiveATC Coverage Map
Top 50 LiveATC Feeds
Bad Weather Areas

LiveATC FAQ
Offer a LiveATC Feed
Contact LiveATC.net
Press Inquiries

LiveATC on iPhone
LiveATC on Android

LiveATC Mobile
(Mobile browser)

ATC Audio Archives
Interesting Recordings

LiveATC Forums


Home Page
About LiveATC.net
Make a Donation
LiveATC Bookstore

Terms of Use
Privacy Policy

ATC/Radar Sites
U.S. ARTCC Freqs
Canadian Air Freqs

AIRMETs/SIGMETs

FAA Airport Status
Nat'l Airspace Status
Arrival Demand Charts


Server Software By:
Icecast.org
Liquidsoap

Please make a donation to help us keep growing!